sensor_id;sensor_type;location;lat;lon;timestamp;pressure;altitude;pressure_sealevel;temperature;humidity
72116;BME280;59991;52.140;5.428;2024-01-15T00:00:05;100312.09;;;1.04;100.00
72116;BME280;59991;52.140;5.428;2024-01-15T00:00:37;100305.16;;;1.03;100.00
72116;BME280;59991;52.140;5.428;2024-01-15T00:01:08;100308.63;;;1.04;100.00
72116;BME280;59991;52.140;5.428;2024-01-15T00:01:43;100305.16;;;1.03;100.00
72116;BME280;59991;52.140;5.428;2024-01-15T00:02:15;100310.84;;;1.02;100.00
72116;BME280;59991;52.140;5.428;2024-01-15T00:02:47;100303.59;;;1.02;100.00
72116;BME280;59991;52.140;5.428;2024-01-15T00:03:19;100311.97;;;1.01;100.00
72116;BME280;59991;52.140;5.428;2024-01-15T00:03:50;100311.66;;;1.02;100.00
72116;BME280;59991;52.140;5.428;2024-01-15T00:04:22;100309.28;;;1.01;100.00
72116;BME280;59991;52.140;5.428;2024-01-15T00:04:54;100310.41;;;1.00;100.00
72116;BME280;59991;52.140;5.428;2024-01-15T00:05:25;100308.34;;;0.97;100.00
72116;BME280;59991;52.140;5.428;2024-01-15T00:06:16;100312.28;;;0.99;100.00
72116;BME280;59991;52.140;5.428;2024-01-15T00:06:49;100307.25;;;0.98;100.00
72116;BME280;59991;52.140;5.428;2024-01-15T00:07:20;100303.78;;;0.97;100.00
72116;BME280;59991;52.140;5.428;2024-01-15T00:08:10;100306.47;;;0.97;100.00
72116;BME280;59991;52.140;5.428;2024-01-15T00:08:42;100300.31;;;0.97;100.00
72116;BME280;59991;52.140;5.428;2024-01-15T00:09:13;100304.88;;;0.96;100.00
72116;BME280;59991;52.140;5.428;2024-01-15T00:09:45;100302.56;;;0.95;100.00
72116;BME280;59991;52.140;5.428;2024-01-15T00:10:17;100304.44;;;0.94;100.00
72116;BME280;59991;52.140;5.428;2024-01-15T00:10:48;100297.50;;;0.93;100.00
72116;BME280;59991;52.140;5.428;2024-01-15T00:11:20;100295.59;;;0.94;100.00
72116;BME280;59991;52.140;5.428;2024-01-15T00:11:51;100295.16;;;0.92;100.00
72116;BME280;59991;52.140;5.428;2024-01-15T00:12:23;100307.78;;;0.91;100.00
72116;BME280;59991;52.140;5.428;2024-01-15T00:12:54;100294.69;;;0.90;100.00
72116;BME280;59991;52.140;5.428;2024-01-15T00:13:26;100302.72;;;0.90;100.00
72116;BME280;59991;52.140;5.428;2024-01-15T00:13:58;100306.19;;;0.90;100.00
72116;BME280;59991;52.140;5.428;2024-01-15T00:14:30;100294.69;;;0.90;100.00
72116;BME280;59991;52.140;5.428;2024-01-15T00:15:01;100292.00;;;0.90;100.00
72116;BME280;59991;52.140;5.428;2024-01-15T00:15:35;100300.06;;;0.90;100.00
72116;BME280;59991;52.140;5.428;2024-01-15T00:16:25;100292.00;;;0.90;100.00
72116;BME280;59991;52.140;5.428;2024-01-15T00:16:57;100295.78;;;0.89;100.00
72116;BME280;59991;52.140;5.428;2024-01-15T00:17:28;100291.53;;;0.88;100.00
72116;BME280;59991;52.140;5.428;2024-01-15T00:18:00;100288.06;;;0.87;100.00
72116;BME280;59991;52.140;5.428;2024-01-15T00:18:32;100294.22;;;0.88;100.00
72116;BME280;59991;52.140;5.428;2024-01-15T00:19:03;100289.97;;;0.87;100.00
72116;BME280;59991;52.140;5.428;2024-01-15T00:19:35;100289.97;;;0.87;100.00
72116;BME280;59991;52.140;5.428;2024-01-15T00:20:09;100288.38;;;0.86;100.00
72116;BME280;59991;52.140;5.428;2024-01-15T00:20:41;100292.19;;;0.85;100.00
72116;BME280;59991;52.140;5.428;2024-01-15T00:21:13;100290.59;;;0.84;100.00
72116;BME280;59991;52.140;5.428;2024-01-15T00:21:45;100296.75;;;0.84;100.00
72116;BME280;59991;52.140;5.428;2024-01-15T00:22:16;100288.72;;;0.84;100.00
72116;BME280;59991;52.140;5.428;2024-01-15T00:22:48;100287.13;;;0.83;100.00
72116;BME280;59991;52.140;5.428;2024-01-15T00:23:20;100285.56;;;0.82;100.00
72116;BME280;59991;52.140;5.428;2024-01-15T00:23:52;100284.44;;;0.83;100.00
72116;BME280;59991;52.140;5.428;2024-01-15T00:24:25;100282.88;;;0.82;100.00
72116;BME280;59991;52.140;5.428;2024-01-15T00:24:56;100282.88;;;0.82;100.00
72116;BME280;59991;52.140;5.428;2024-01-15T00:25:28;100284.78;;;0.82;100.00
72116;BME280;59991;52.140;5.428;2024-01-15T00:26:17;100283.97;;;0.81;100.00
72116;BME280;59991;52.140;5.428;2024-01-15T00:26:48;100284.31;;;0.80;100.00
72116;BME280;59991;52.140;5.428;2024-01-15T00:27:20;100277.38;;;0.79;100.00
72116;BME280;59991;52.140;5.428;2024-01-15T00:27:52;100274.69;;;0.79;100.00
72116;BME280;59991;52.140;5.428;2024-01-15T00:29:13;100275.78;;;0.78;100.00
72116;BME280;59991;52.140;5.428;2024-01-15T00:29:45;100279.25;;;0.78;100.00
72116;BME280;59991;52.140;5.428;2024-01-15T00:30:16;100281.50;;;0.76;100.00
72116;BME280;59991;52.140;5.428;2024-01-15T00:30:48;100271.09;;;0.75;100.00
72116;BME280;59991;52.140;5.428;2024-01-15T00:31:20;100271.09;;;0.75;100.00
72116;BME280;59991;52.140;5.428;2024-01-15T00:31:51;100273.00;;;0.74;100.00
72116;BME280;59991;52.140;5.428;2024-01-15T00:32:23;100274.88;;;0.74;100.00
72116;BME280;59991;52.140;5.428;2024-01-15T00:32:55;100276.78;;;0.73;100.00
72116;BME280;59991;52.140;5.428;2024-01-15T00:33:26;100280.25;;;0.74;100.00
72116;BME280;59991;52.140;5.428;2024-01-15T00:33:58;100280.25;;;0.74;100.00
72116;BME280;59991;52.140;5.428;2024-01-15T00:34:30;100278.69;;;0.73;100.00
72116;BME280;59991;52.140;5.428;2024-01-15T00:35:02;100273.31;;;0.73;100.00
72116;BME280;59991;52.140;5.428;2024-01-15T00:35:34;100278.69;;;0.73;100.00
72116;BME280;59991;52.140;5.428;2024-01-15T00:36:06;100279.78;;;0.72;100.00
72116;BME280;59991;52.140;5.428;2024-01-15T00:36:39;100283.25;;;0.72;100.00
72116;BME280;59991;52.140;5.428;2024-01-15T00:37:10;100274.09;;;0.73;100.00
72116;BME280;59991;52.140;5.428;2024-01-15T00:37:42;100277.09;;;0.72;100.00
72116;BME280;59991;52.140;5.428;2024-01-15T00:38:13;100271.75;;;0.72;100.00
72116;BME280;59991;52.140;5.428;2024-01-15T00:38:45;100272.53;;;0.72;100.00
72116;BME280;59991;52.140;5.428;2024-01-15T00:39:18;100274.44;;;0.72;100.00
72116;BME280;59991;52.140;5.428;2024-01-15T00:39:50;100271.75;;;0.72;100.00
72116;BME280;59991;52.140;5.428;2024-01-15T00:40:40;100265.59;;;0.71;100.00
72116;BME280;59991;52.140;5.428;2024-01-15T00:41:12;100264.81;;;0.71;100.00
72116;BME280;59991;52.140;5.428;2024-01-15T00:41:44;100266.69;;;0.70;100.00
72116;BME280;59991;52.140;5.428;2024-01-15T00:42:16;100266.69;;;0.70;100.00
72116;BME280;59991;52.140;5.428;2024-01-15T00:42:47;100264.34;;;0.68;100.00
72116;BME280;59991;52.140;5.428;2024-01-15T00:43:19;100265.44;;;0.67;100.00
72116;BME280;59991;52.140;5.428;2024-01-15T00:43:51;100260.06;;;0.67;100.00
72116;BME280;59991;52.140;5.428;2024-01-15T00:44:22;100261.19;;;0.66;100.00
72116;BME280;59991;52.140;5.428;2024-01-15T00:45:13;100265.44;;;0.67;100.00
72116;BME280;59991;52.140;5.428;2024-01-15T00:45:44;100257.72;;;0.66;100.00
72116;BME280;59991;52.140;5.428;2024-01-15T00:46:16;100259.63;;;0.65;100.00
72116;BME280;59991;52.140;5.428;2024-01-15T00:46:48;100258.03;;;0.64;100.00
72116;BME280;59991;52.140;5.428;2024-01-15T00:47:20;100259.94;;;0.64;100.00
72116;BME280;59991;52.140;5.428;2024-01-15T00:47:51;100264.19;;;0.65;100.00
72116;BME280;59991;52.140;5.428;2024-01-15T00:48:42;100251.09;;;0.63;100.00
72116;BME280;59991;52.140;5.428;2024-01-15T00:49:14;100249.53;;;0.62;100.00
72116;BME280;59991;52.140;5.428;2024-01-15T00:49:46;100252.22;;;0.62;100.00
72116;BME280;59991;52.140;5.428;2024-01-15T00:50:17;100251.41;;;0.62;100.00
72116;BME280;59991;52.140;5.428;2024-01-15T00:50:49;100257.09;;;0.60;100.00
72116;BME280;59991;52.140;5.428;2024-01-15T00:51:21;100247.94;;;0.61;100.00
72116;BME280;59991;52.140;5.428;2024-01-15T00:51:52;100247.16;;;0.61;100.00
72116;BME280;59991;52.140;5.428;2024-01-15T00:52:24;100247.47;;;0.59;100.00
72116;BME280;59991;52.140;5.428;2024-01-15T00:52:55;100247.47;;;0.59;100.00
72116;BME280;59991;52.140;5.428;2024-01-15T00:53:27;100245.13;;;0.58;100.00
72116;BME280;59991;52.140;5.428;2024-01-15T00:53:58;100245.13;;;0.58;100.00
72116;BME280;59991;52.140;5.428;2024-01-15T00:54:30;100253.16;;;0.58;100.00
72116;BME280;59991;52.140;5.428;2024-01-15T00:55:01;100248.59;;;0.58;100.00
72116;BME280;59991;52.140;5.428;2024-01-15T00:56:23;100245.13;;;0.58;100.00
72116;BME280;59991;52.140;5.428;2024-01-15T00:56:55;100249.72;;;0.57;100.00
72116;BME280;59991;52.140;5.428;2024-01-15T00:57:26;100248.94;;;0.57;100.00
72116;BME280;59991;52.140;5.428;2024-01-15T00:57:58;100251.63;;;0.57;100.00
72116;BME280;59991;52.140;5.428;2024-01-15T00:58:29;100254.63;;;0.55;100.00
72116;BME280;59991;52.140;5.428;2024-01-15T00:59:01;100253.06;;;0.54;100.00
72116;BME280;59991;52.140;5.428;2024-01-15T00:59:32;100250.38;;;0.54;100.00
72116;BME280;59991;52.140;5.428;2024-01-15T01:00:05;100252.28;;;0.54;100.00
72116;BME280;59991;52.140;5.428;2024-01-15T01:00:37;100246.13;;;0.53;100.00
72116;BME280;59991;52.140;5.428;2024-01-15T01:01:59;100244.88;;;0.51;100.00
72116;BME280;59991;52.140;5.428;2024-01-15T01:02:30;100254.50;;;0.52;100.00
72116;BME280;59991;52.140;5.428;2024-01-15T01:03:02;100254.50;;;0.52;100.00
72116;BME280;59991;52.140;5.428;2024-01-15T01:03:36;100252.13;;;0.50;100.00
72116;BME280;59991;52.140;5.428;2024-01-15T01:04:11;100246.75;;;0.50;100.00
72116;BME280;59991;52.140;5.428;2024-01-15T01:04:46;100246.75;;;0.50;100.00
72116;BME280;59991;52.140;5.428;2024-01-15T01:05:17;100249.44;;;0.50;100.00
72116;BME280;59991;52.140;5.428;2024-01-15T01:05:49;100239.50;;;0.51;100.00
72116;BME280;59991;52.140;5.428;2024-01-15T01:07:32;100242.50;;;0.49;100.00
72116;BME280;59991;52.140;5.428;2024-01-15T01:08:04;100240.94;;;0.48;100.00
72116;BME280;59991;52.140;5.428;2024-01-15T01:08:36;100243.63;;;0.48;100.00
72116;BME280;59991;52.140;5.428;2024-01-15T01:09:07;100239.34;;;0.47;100.00
72116;BME280;59991;52.140;5.428;2024-01-15T01:09:39;100240.94;;;0.48;100.00
72116;BME280;59991;52.140;5.428;2024-01-15T01:10:11;100240.16;;;0.48;100.00
72116;BME280;59991;52.140;5.428;2024-01-15T01:10:59;100239.34;;;0.47;100.00
72116;BME280;59991;52.140;5.428;2024-01-15T01:11:31;100241.56;;;0.45;100.00
72116;BME280;59991;52.140;5.428;2024-01-15T01:12:03;100242.38;;;0.46;100.00
72116;BME280;59991;52.140;5.428;2024-01-15T01:12:35;100233.53;;;0.45;100.00
72116;BME280;59991;52.140;5.428;2024-01-15T01:13:06;100234.63;;;0.44;100.00
72116;BME280;59991;52.140;5.428;2024-01-15T01:13:38;100237.63;;;0.43;100.00
72116;BME280;59991;52.140;5.428;2024-01-15T01:14:09;100233.06;;;0.43;100.00
72116;BME280;59991;52.140;5.428;2024-01-15T01:14:59;100234.63;;;0.44;100.00
72116;BME280;59991;52.140;5.428;2024-01-15T01:15:31;100236.84;;;0.42;100.00
72116;BME280;59991;52.140;5.428;2024-01-15T01:16:03;100232.59;;;0.41;100.00
72116;BME280;59991;52.140;5.428;2024-01-15T01:16:52;100232.59;;;0.41;100.00
72116;BME280;59991;52.140;5.428;2024-01-15T01:17:23;100232.13;;;0.39;100.00
72116;BME280;59991;52.140;5.428;2024-01-15T01:17:55;100232.91;;;0.40;100.00
72116;BME280;59991;52.140;5.428;2024-01-15T01:18:27;100231.34;;;0.39;100.00
72116;BME280;59991;52.140;5.428;2024-01-15T01:18:59;100231.34;;;0.39;100.00
72116;BME280;59991;52.140;5.428;2024-01-15T01:19:49;100231.34;;;0.39;100.00
72116;BME280;59991;52.140;5.428;2024-01-15T01:20:21;100229.00;;;0.37;100.00
72116;BME280;59991;52.140;5.428;2024-01-15T01:20:53;100225.97;;;0.39;100.00
72116;BME280;59991;52.140;5.428;2024-01-15T01:21:43;100230.59;;;0.38;100.00
72116;BME280;59991;52.140;5.428;2024-01-15T01:22:14;100233.59;;;0.37;100.00
72116;BME280;59991;52.140;5.428;2024-01-15T01:22:46;100234.38;;;0.37;100.00
72116;BME280;59991;52.140;5.428;2024-01-15T01:23:35;100233.59;;;0.37;100.00
72116;BME280;59991;52.140;5.428;2024-01-15T01:24:07;100234.69;;;0.36;100.00
72116;BME280;59991;52.140;5.428;2024-01-15T01:24:38;100231.69;;;0.37;100.00
72116;BME280;59991;52.140;5.428;2024-01-15T01:25:10;100229.34;;;0.36;100.00
72116;BME280;59991;52.140;5.428;2024-01-15T01:25:42;100239.75;;;0.37;100.00
72116;BME280;59991;52.140;5.428;2024-01-15T01:26:17;100236.28;;;0.37;100.00
72116;BME280;59991;52.140;5.428;2024-01-15T01:26:48;100233.59;;;0.37;100.00
72116;BME280;59991;52.140;5.428;2024-01-15T01:27:20;100239.28;;;0.35;100.00
72116;BME280;59991;52.140;5.428;2024-01-15T01:27:52;100237.38;;;0.36;100.00
72116;BME280;59991;52.140;5.428;2024-01-15T01:28:23;100235.81;;;0.34;100.00
72116;BME280;59991;52.140;5.428;2024-01-15T01:28:55;100237.69;;;0.34;100.00
72116;BME280;59991;52.140;5.428;2024-01-15T01:29:26;100239.59;;;0.33;100.00
72116;BME280;59991;52.140;5.428;2024-01-15T01:29:58;100236.91;;;0.33;100.00
72116;BME280;59991;52.140;5.428;2024-01-15T01:30:30;100233.91;;;0.35;100.00
72116;BME280;59991;52.140;5.428;2024-01-15T01:31:02;100235.81;;;0.34;100.00
72116;BME280;59991;52.140;5.428;2024-01-15T01:31:34;100238.47;;;0.34;100.00
72116;BME280;59991;52.140;5.428;2024-01-15T01:32:05;100238.81;;;0.33;100.00
72116;BME280;59991;52.140;5.428;2024-01-15T01:32:37;100238.47;;;0.34;100.00
72116;BME280;59991;52.140;5.428;2024-01-15T01:33:09;100241.97;;;0.35;100.00
72116;BME280;59991;52.140;5.428;2024-01-15T01:33:40;100241.16;;;0.34;100.00
72116;BME280;59991;52.140;5.428;2024-01-15T01:34:16;100241.16;;;0.34;100.00
72116;BME280;59991;52.140;5.428;2024-01-15T01:35:38;100242.59;;;0.32;100.00
72116;BME280;59991;52.140;5.428;2024-01-15T01:36:10;100247.97;;;0.32;100.00
72116;BME280;59991;52.140;5.428;2024-01-15T01:36:42;100239.44;;;0.30;100.00
72116;BME280;59991;52.140;5.428;2024-01-15T01:37:14;100244.81;;;0.30;100.00
72116;BME280;59991;52.140;5.428;2024-01-15T01:37:46;100241.34;;;0.29;100.00
72116;BME280;59991;52.140;5.428;2024-01-15T01:38:17;100246.72;;;0.29;100.00
72116;BME280;59991;52.140;5.428;2024-01-15T01:38:49;100238.66;;;0.29;100.00
72116;BME280;59991;52.140;5.428;2024-01-15T01:39:20;100248.28;;;0.30;100.00
72116;BME280;59991;52.140;5.428;2024-01-15T01:39:52;100244.81;;;0.30;100.00
72116;BME280;59991;52.140;5.428;2024-01-15T01:40:23;100243.69;;;0.31;100.00
72116;BME280;59991;52.140;5.428;2024-01-15T01:40:55;100247.50;;;0.30;100.00
72116;BME280;59991;52.140;5.428;2024-01-15T01:41:26;100244.81;;;0.30;100.00
72116;BME280;59991;52.140;5.428;2024-01-15T01:42:16;100242.59;;;0.32;100.00
72116;BME280;59991;52.140;5.428;2024-01-15T01:42:48;100241.81;;;0.31;100.00
72116;BME280;59991;52.140;5.428;2024-01-15T01:43:20;100237.56;;;0.30;100.00
72116;BME280;59991;52.140;5.428;2024-01-15T01:43:51;100236.75;;;0.30;100.00
72116;BME280;59991;52.140;5.428;2024-01-15T01:44:23;100233.75;;;0.31;100.00
72116;BME280;59991;52.140;5.428;2024-01-15T01:44:55;100234.09;;;0.30;100.00
72116;BME280;59991;52.140;5.428;2024-01-15T01:45:26;100237.22;;;0.32;100.00
72116;BME280;59991;52.140;5.428;2024-01-15T01:46:00;100242.59;;;0.32;100.00
72116;BME280;59991;52.140;5.428;2024-01-15T01:46:32;100246.38;;;0.31;100.00
72116;BME280;59991;52.140;5.428;2024-01-15T01:47:05;100241.81;;;0.31;100.00
72116;BME280;59991;52.140;5.428;2024-01-15T01:47:37;100241.03;;;0.31;100.00
72116;BME280;59991;52.140;5.428;2024-01-15T01:48:10;100236.44;;;0.31;100.00
72116;BME280;59991;52.140;5.428;2024-01-15T01:49:37;100235.66;;;0.31;100.00
72116;BME280;59991;52.140;5.428;2024-01-15T01:50:09;100230.28;;;0.31;100.00
72116;BME280;59991;52.140;5.428;2024-01-15T01:50:41;100235.66;;;0.31;100.00
72116;BME280;59991;52.140;5.428;2024-01-15T01:51:13;100234.09;;;0.30;100.00
72116;BME280;59991;52.140;5.428;2024-01-15T01:51:46;100227.94;;;0.29;100.00
72116;BME280;59991;52.140;5.428;2024-01-15T01:52:18;100235.19;;;0.29;100.00
72116;BME280;59991;52.140;5.428;2024-01-15T01:52:50;100230.63;;;0.29;100.00
72116;BME280;59991;52.140;5.428;2024-01-15T01:53:22;100233.28;;;0.29;100.00
72116;BME280;59991;52.140;5.428;2024-01-15T01:53:54;100235.97;;;0.29;100.00
72116;BME280;59991;52.140;5.428;2024-01-15T01:54:29;100234.88;;;0.30;100.00
72116;BME280;59991;52.140;5.428;2024-01-15T01:55:02;100236.75;;;0.30;100.00
72116;BME280;59991;52.140;5.428;2024-01-15T01:55:34;100231.41;;;0.30;100.00
72116;BME280;59991;52.140;5.428;2024-01-15T01:56:07;100224.94;;;0.31;100.00
72116;BME280;59991;52.140;5.428;2024-01-15T01:56:40;100233.75;;;0.31;100.00
72116;BME280;59991;52.140;5.428;2024-01-15T01:57:12;100233.28;;;0.29;100.00
72116;BME280;59991;52.140;5.428;2024-01-15T01:58:01;100232.97;;;0.31;100.00
72116;BME280;59991;52.140;5.428;2024-01-15T01:58:33;100230.63;;;0.29;100.00
72116;BME280;59991;52.140;5.428;2024-01-15T01:59:06;100232.50;;;0.29;100.00
72116;BME280;59991;52.140;5.428;2024-01-15T01:59:58;100229.81;;;0.29;100.00
72116;BME280;59991;52.140;5.428;2024-01-15T02:00:30;100232.50;;;0.29;100.00
72116;BME280;59991;52.140;5.428;2024-01-15T02:01:03;100233.63;;;0.28;100.00
72116;BME280;59991;52.140;5.428;2024-01-15T02:01:35;100232.03;;;0.27;100.00
72116;BME280;59991;52.140;5.428;2024-01-15T02:02:07;100232.81;;;0.27;100.00
72116;BME280;59991;52.140;5.428;2024-01-15T02:02:39;100232.03;;;0.27;100.00
72116;BME280;59991;52.140;5.428;2024-01-15T02:03:29;100233.94;;;0.26;100.00
72116;BME280;59991;52.140;5.428;2024-01-15T02:04:03;100232.03;;;0.27;100.00
72116;BME280;59991;52.140;5.428;2024-01-15T02:04:35;100229.69;;;0.25;100.00
72116;BME280;59991;52.140;5.428;2024-01-15T02:05:08;100227.47;;;0.27;100.00
72116;BME280;59991;52.140;5.428;2024-01-15T02:05:59;100229.03;;;0.28;100.00
72116;BME280;59991;52.140;5.428;2024-01-15T02:06:31;100229.50;;;0.30;100.00
72116;BME280;59991;52.140;5.428;2024-01-15T02:07:03;100228.72;;;0.30;100.00
72116;BME280;59991;52.140;5.428;2024-01-15T02:07:35;100234.09;;;0.30;100.00
72116;BME280;59991;52.140;5.428;2024-01-15T02:08:08;100232.97;;;0.31;100.00
72116;BME280;59991;52.140;5.428;2024-01-15T02:08:39;100242.59;;;0.32;100.00
72116;BME280;59991;52.140;5.428;2024-01-15T02:09:13;100236.91;;;0.33;100.00
72116;BME280;59991;52.140;5.428;2024-01-15T02:09:46;100238.47;;;0.34;100.00
72116;BME280;59991;52.140;5.428;2024-01-15T02:10:18;100242.75;;;0.36;100.00
72116;BME280;59991;52.140;5.428;2024-01-15T02:10:49;100233.59;;;0.37;100.00
72116;BME280;59991;52.140;5.428;2024-01-15T02:11:21;100246.69;;;0.38;100.00
72116;BME280;59991;52.140;5.428;2024-01-15T02:11:52;100255.16;;;0.40;100.00
72116;BME280;59991;52.140;5.428;2024-01-15T02:12:24;100251.38;;;0.41;100.00
72116;BME280;59991;52.140;5.428;2024-01-15T02:12:56;100259.09;;;0.43;100.00
72116;BME280;59991;52.140;5.428;2024-01-15T02:13:28;100275.34;;;0.46;100.00
72116;BME280;59991;52.140;5.428;2024-01-15T02:13:59;100266.19;;;0.47;100.00
72116;BME280;59991;52.140;5.428;2024-01-15T02:14:31;100265.84;;;0.49;100.00
72116;BME280;59991;52.140;5.428;2024-01-15T02:15:20;100267.13;;;0.51;100.00
72116;BME280;59991;52.140;5.428;2024-01-15T02:15:52;100271.06;;;0.54;100.00
72116;BME280;59991;52.140;5.428;2024-01-15T02:16:24;100280.34;;;0.56;100.00
72116;BME280;59991;52.140;5.428;2024-01-15T02:16:56;100270.41;;;0.57;100.00
72116;BME280;59991;52.140;5.428;2024-01-15T02:17:27;100275.78;;;0.57;100.00
72116;BME280;59991;52.140;5.428;2024-01-15T02:18:03;100271.19;;;0.57;100.00
72116;BME280;59991;52.140;5.428;2024-01-15T02:18:46;100266.94;;;0.56;100.00
72116;BME280;59991;52.140;5.428;2024-01-15T02:19:18;100263.47;;;0.56;100.00
72116;BME280;59991;52.140;5.428;2024-01-15T02:19:50;100245.00;;;0.54;100.00
72116;BME280;59991;52.140;5.428;2024-01-15T02:20:22;100259.22;;;0.55;100.00
72116;BME280;59991;52.140;5.428;2024-01-15T02:20:53;100254.94;;;0.54;100.00
72116;BME280;59991;52.140;5.428;2024-01-15T02:21:25;100254.16;;;0.53;100.00
72116;BME280;59991;52.140;5.428;2024-01-15T02:21:59;100246.44;;;0.52;100.00
72116;BME280;59991;52.140;5.428;2024-01-15T02:22:31;100252.91;;;0.51;100.00
72116;BME280;59991;52.140;5.428;2024-01-15T02:23:21;100251.03;;;0.51;100.00
72116;BME280;59991;52.140;5.428;2024-01-15T02:23:53;100246.75;;;0.50;100.00
72116;BME280;59991;52.140;5.428;2024-01-15T02:24:24;100244.88;;;0.51;100.00
72116;BME280;59991;52.140;5.428;2024-01-15T02:24:56;100243.28;;;0.50;100.00
72116;BME280;59991;52.140;5.428;2024-01-15T02:25:28;100243.28;;;0.50;100.00
72116;BME280;59991;52.140;5.428;2024-01-15T02:26:00;100244.88;;;0.51;100.00
72116;BME280;59991;52.140;5.428;2024-01-15T02:26:32;100246.75;;;0.50;100.00
72116;BME280;59991;52.140;5.428;2024-01-15T02:27:07;100241.41;;;0.50;100.00
72116;BME280;59991;52.140;5.428;2024-01-15T02:27:39;100235.25;;;0.50;100.00
72116;BME280;59991;52.140;5.428;2024-01-15T02:28:15;100241.41;;;0.50;100.00
72116;BME280;59991;52.140;5.428;2024-01-15T02:28:48;100226.41;;;0.49;100.00
72116;BME280;59991;52.140;5.428;2024-01-15T02:29:21;100248.66;;;0.50;100.00
72116;BME280;59991;52.140;5.428;2024-01-15T02:29:54;100236.03;;;0.50;100.00
72116;BME280;59991;52.140;5.428;2024-01-15T02:30:27;100241.41;;;0.50;100.00
72116;BME280;59991;52.140;5.428;2024-01-15T02:31:18;100234.13;;;0.51;100.00
72116;BME280;59991;52.140;5.428;2024-01-15T02:31:50;100238.72;;;0.50;100.00
72116;BME280;59991;52.140;5.428;2024-01-15T02:32:40;100239.50;;;0.51;100.00
72116;BME280;59991;52.140;5.428;2024-01-15T02:33:12;100239.50;;;0.51;100.00
72116;BME280;59991;52.140;5.428;2024-01-15T02:33:44;100240.28;;;0.51;100.00
72116;BME280;59991;52.140;5.428;2024-01-15T02:34:17;100242.19;;;0.51;100.00
72116;BME280;59991;52.140;5.428;2024-01-15T02:34:49;100235.72;;;0.52;100.00
72116;BME280;59991;52.140;5.428;2024-01-15T02:35:21;100245.66;;;0.51;100.00
72116;BME280;59991;52.140;5.428;2024-01-15T02:35:53;100243.75;;;0.52;100.00
72116;BME280;59991;52.140;5.428;2024-01-15T02:36:42;100241.06;;;0.52;100.00
72116;BME280;59991;52.140;5.428;2024-01-15T02:37:13;100249.13;;;0.52;100.00
72116;BME280;59991;52.140;5.428;2024-01-15T02:37:45;100244.88;;;0.51;100.00
72116;BME280;59991;52.140;5.428;2024-01-15T02:38:16;100241.06;;;0.52;100.00
72116;BME280;59991;52.140;5.428;2024-01-15T02:38:48;100243.75;;;0.52;100.00
72116;BME280;59991;52.140;5.428;2024-01-15T02:39:20;100245.66;;;0.51;100.00
72116;BME280;59991;52.140;5.428;2024-01-15T02:39:51;100237.59;;;0.51;100.00
72116;BME280;59991;52.140;5.428;2024-01-15T02:40:23;100240.28;;;0.51;100.00
72116;BME280;59991;52.140;5.428;2024-01-15T02:40:54;100229.56;;;0.51;100.00
72116;BME280;59991;52.140;5.428;2024-01-15T02:41:26;100236.50;;;0.52;100.00
72116;BME280;59991;52.140;5.428;2024-01-15T02:41:57;100236.50;;;0.52;100.00
72116;BME280;59991;52.140;5.428;2024-01-15T02:42:29;100237.59;;;0.51;100.00
72116;BME280;59991;52.140;5.428;2024-01-15T02:43:01;100222.31;;;0.52;100.00
72116;BME280;59991;52.140;5.428;2024-01-15T02:43:50;100234.94;;;0.51;100.00
72116;BME280;59991;52.140;5.428;2024-01-15T02:44:22;100241.06;;;0.52;100.00
72116;BME280;59991;52.140;5.428;2024-01-15T02:44:53;100237.59;;;0.51;100.00
72116;BME280;59991;52.140;5.428;2024-01-15T02:45:25;100237.59;;;0.51;100.00
72116;BME280;59991;52.140;5.428;2024-01-15T02:45:56;100231.13;;;0.52;100.00
72116;BME280;59991;52.140;5.428;2024-01-15T02:46:28;100235.38;;;0.53;100.00
72116;BME280;59991;52.140;5.428;2024-01-15T02:46:59;100233.81;;;0.52;100.00
72116;BME280;59991;52.140;5.428;2024-01-15T02:47:31;100221.97;;;0.53;100.00
72116;BME280;59991;52.140;5.428;2024-01-15T02:48:05;100222.75;;;0.54;100.00
72116;BME280;59991;52.140;5.428;2024-01-15T02:48:37;100228.91;;;0.54;100.00
72116;BME280;59991;52.140;5.428;2024-01-15T02:49:08;100232.72;;;0.53;100.00
72116;BME280;59991;52.140;5.428;2024-01-15T02:49:40;100230.03;;;0.53;100.00
72116;BME280;59991;52.140;5.428;2024-01-15T02:50:12;100217.72;;;0.52;100.00
72116;BME280;59991;52.140;5.428;2024-01-15T02:50:44;100227.34;;;0.53;100.00
72116;BME280;59991;52.140;5.428;2024-01-15T02:51:15;100226.22;;;0.54;100.00
72116;BME280;59991;52.140;5.428;2024-01-15T02:51:47;100235.06;;;0.55;100.00
72116;BME280;59991;52.140;5.428;2024-01-15T02:52:19;100228.91;;;0.54;100.00
72116;BME280;59991;52.140;5.428;2024-01-15T02:52:50;100232.38;;;0.55;100.00
72116;BME280;59991;52.140;5.428;2024-01-15T02:53:22;100231.59;;;0.54;100.00
72116;BME280;59991;52.140;5.428;2024-01-15T02:53:53;100228.91;;;0.54;100.00
72116;BME280;59991;52.140;5.428;2024-01-15T02:54:25;100229.69;;;0.55;100.00
72116;BME280;59991;52.140;5.428;2024-01-15T02:54:57;100229.69;;;0.55;100.00
72116;BME280;59991;52.140;5.428;2024-01-15T02:55:28;100228.91;;;0.54;100.00
72116;BME280;59991;52.140;5.428;2024-01-15T02:56:01;100229.38;;;0.56;100.00
72116;BME280;59991;52.140;5.428;2024-01-15T02:56:32;100225.13;;;0.55;100.00
72116;BME280;59991;52.140;5.428;2024-01-15T02:57:04;100225.91;;;0.56;100.00
72116;BME280;59991;52.140;5.428;2024-01-15T02:57:36;100225.13;;;0.55;100.00
72116;BME280;59991;52.140;5.428;2024-01-15T02:58:07;100229.38;;;0.56;100.00
72116;BME280;59991;52.140;5.428;2024-01-15T02:58:41;100225.59;;;0.57;100.00
72116;BME280;59991;52.140;5.428;2024-01-15T02:59:13;100228.28;;;0.57;100.00
72116;BME280;59991;52.140;5.428;2024-01-15T02:59:44;100227.47;;;0.57;100.00